Time;durP1;ratioP1;P1;durP2;ratioP2;P2;SDS_P1;SDS_P2;PMS_P1;PMS_P2;Temp;Humidity;BMP_temperature;BMP_pressure;BME280_temperature;BME280_humidity;BME280_pressure;Samples;Min_cycle;Max_cycle;Signal;HPM_P1;HPM_P2
2022/12/03 00:00:04;;;;;;;;;;;;;;;0.45;100.00;95700.97;10526098;28;2867;-67
2022/12/03 00:05:18;;;;;;;;;;;;;;;0.48;100.00;95699.75;10528988;28;2445;-69
2022/12/03 00:10:21;;;;;;;;;;;;;;;0.48;100.00;95699.75;10526911;28;2921;-66
2022/12/03 00:15:24;;;;;;;;;;;;;;;0.43;100.00;95689.78;10530033;28;2882;-66
2022/12/03 00:20:27;;;;;;;;;;;;;;;0.41;100.00;95694.47;10519509;28;2943;-68
2022/12/03 00:25:30;;;;;;;;;;;;;;;0.29;100.00;95692.72;10533974;28;2917;-67
2022/12/03 00:30:33;;;;;;;;;;;;;;;0.25;100.00;95702.91;10518036;28;2836;-71
2022/12/03 00:35:36;;;;;;;;;;;;;;;0.33;100.00;95697.38;10528850;28;2958;-67
2022/12/03 00:40:39;;;;;;;;;;;;;;;0.28;100.00;95705.13;10512178;28;2893;-68
2022/12/03 00:45:43;;;;;;;;;;;;;;;0.23;100.00;95697.00;10525963;28;2903;-67
2022/12/03 00:50:46;;;;;;;;;;;;;;;0.17;100.00;95677.50;10532736;28;2901;-66
2022/12/03 00:55:50;;;;;;;;;;;;;;;0.34;100.00;95693.72;10521096;28;2927;-66
2022/12/03 01:00:53;;;;;;;;;;;;;;;0.33;100.00;95697.38;10521036;28;2929;-68
2022/12/03 01:05:56;;;;;;;;;;;;;;;0.23;100.00;95699.66;10511508;28;3393;-64
2022/12/03 01:11:00;;;;;;;;;;;;;;;0.28;100.00;95697.19;10505541;28;2971;-66
2022/12/03 01:16:03;;;;;;;;;;;;;;;0.32;100.00;95695.78;10512506;28;2778;-67
2022/12/03 01:21:06;;;;;;;;;;;;;;;0.16;100.00;95701.53;10521586;28;2858;-66
2022/12/03 01:26:09;;;;;;;;;;;;;;;0.12;100.00;95692.38;10517440;28;2468;-67
2022/12/03 01:36:34;;;;;;;;;;;;;;;-0.03;100.00;95693.47;10519278;28;2901;-66
2022/12/03 01:41:37;;;;;;;;;;;;;;;0.01;100.00;95693.06;10513826;28;2910;-67
2022/12/03 01:46:40;;;;;;;;;;;;;;;-0.10;100.00;95703.25;10517372;28;2893;-67
2022/12/03 01:51:43;;;;;;;;;;;;;;;-0.11;100.00;95706.91;10520596;28;2919;-67
2022/12/03 01:56:46;;;;;;;;;;;;;;;-0.12;100.00;95702.66;10499983;28;2951;-66
2022/12/03 02:01:50;;;;;;;;;;;;;;;-0.12;100.00;95710.59;10486861;28;3236;-72
2022/12/03 02:06:53;;;;;;;;;;;;;;;-0.14;100.00;95702.03;10494887;28;2874;-68
2022/12/03 02:11:56;;;;;;;;;;;;;;;-0.23;100.00;95690.09;10509196;28;2858;-66
2022/12/03 02:16:59;;;;;;;;;;;;;;;-0.30;100.00;95702.50;10500250;28;2910;-68
2022/12/03 02:22:02;;;;;;;;;;;;;;;-0.14;100.00;95702.03;10501773;28;3026;-67
2022/12/03 02:27:05;;;;;;;;;;;;;;;-0.17;100.00;95707.75;10510325;28;2933;-66
2022/12/03 02:32:09;;;;;;;;;;;;;;;-0.11;100.00;95706.09;10526747;28;2890;-67
2022/12/03 02:37:12;;;;;;;;;;;;;;;-0.23;100.00;95703.28;10500341;28;2883;-69
2022/12/03 02:42:34;;;;;;;;;;;;;;;-0.38;100.00;95711.47;10507559;28;2831;-68
2022/12/03 02:47:38;;;;;;;;;;;;;;;-0.67;100.00;95704.78;10504363;28;2870;-67
2022/12/03 02:52:41;;;;;;;;;;;;;;;-0.65;100.00;95702.75;10511016;28;2926;-67
2022/12/03 02:57:44;;;;;;;;;;;;;;;-0.60;100.00;95705.59;10500171;28;3001;-70
2022/12/03 03:02:48;;;;;;;;;;;;;;;-0.45;100.00;95707.19;10508930;28;2927;-67
2022/12/03 03:07:51;;;;;;;;;;;;;;;-0.41;100.00;95705.78;10502684;28;2767;-67
2022/12/03 03:12:54;;;;;;;;;;;;;;;-0.50;100.00;95704.38;10511654;28;2909;-68
2022/12/03 03:17:57;;;;;;;;;;;;;;;-0.52;100.00;95703.75;10518634;28;2950;-67
2022/12/03 03:23:00;;;;;;;;;;;;;;;-0.57;100.00;95699.94;10506059;28;2907;-67
2022/12/03 03:28:05;;;;;;;;;;;;;;;-0.46;100.00;95700.28;10498465;28;2898;-67
2022/12/03 03:33:08;;;;;;;;;;;;;;;-0.53;100.00;95688.94;10506484;28;2921;-66
2022/12/03 03:38:11;;;;;;;;;;;;;;;-0.74;100.00;95677.59;10502793;28;2979;-65
2022/12/03 03:43:14;;;;;;;;;;;;;;;-0.68;100.00;95691.81;10490057;28;2901;-71
2022/12/03 03:48:17;;;;;;;;;;;;;;;-0.81;100.00;95695.28;10509602;28;2891;-73
2022/12/03 03:53:20;;;;;;;;;;;;;;;-0.84;100.00;95687.75;10504291;28;2862;-68
2022/12/03 03:58:23;;;;;;;;;;;;;;;-0.79;100.00;95698.50;10507366;28;2552;-71
2022/12/03 04:03:26;;;;;;;;;;;;;;;-0.83;100.00;95686.72;10516851;28;2985;-66
2022/12/03 04:08:45;;;;;;;;;;;;;;;-0.94;100.00;95684.72;10499566;28;2858;-66
2022/12/03 04:13:48;;;;;;;;;;;;;;;-0.89;100.00;95693.66;10512921;28;2978;-67
2022/12/03 04:18:51;;;;;;;;;;;;;;;-0.77;100.00;95685.09;10505337;28;2526;-67
2022/12/03 04:23:54;;;;;;;;;;;;;;;-0.67;100.00;95681.03;10502521;28;2471;-66
2022/12/03 04:28:57;;;;;;;;;;;;;;;-0.92;100.00;95682.69;10519254;28;2905;-66
2022/12/03 04:39:22;;;;;;;;;;;;;;;-1.03;100.00;95707.03;10505256;28;2911;-65
2022/12/03 04:44:35;;;;;;;;;;;;;;;-1.23;100.00;95701.75;10502996;28;2477;-65
2022/12/03 04:49:38;;;;;;;;;;;;;;;-1.20;100.00;95707.47;10515077;28;2973;-69
2022/12/03 04:54:41;;;;;;;;;;;;;;;-1.36;100.00;95706.00;10512087;28;2970;-68
2022/12/03 04:59:44;;;;;;;;;;;;;;;-1.40;100.00;95702.16;10513937;28;2394;-66
2022/12/03 05:04:47;;;;;;;;;;;;;;;-1.30;100.00;95709.66;10504455;28;3037;-66
2022/12/03 05:09:50;;;;;;;;;;;;;;;-1.25;100.00;95703.78;10514511;28;2928;-66
2022/12/03 05:14:56;;;;;;;;;;;;;;;-1.37;100.00;95706.22;10510826;28;2445;-66
2022/12/03 05:25:20;;;;;;;;;;;;;;;-1.19;100.00;95703.78;10511526;28;2851;-67
2022/12/03 05:30:23;;;;;;;;;;;;;;;-1.25;100.00;95715.16;10521535;28;3224;-65
2022/12/03 05:35:31;;;;;;;;;;;;;;;-1.11;100.00;95711.50;10528366;28;2868;-66
2022/12/03 05:40:34;;;;;;;;;;;;;;;-1.13;100.00;95715.38;10514834;28;2866;-66
2022/12/03 05:45:37;;;;;;;;;;;;;;;-1.14;100.00;95713.75;10501860;28;2851;-66
2022/12/03 05:50:43;;;;;;;;;;;;;;;-1.15;100.00;95710.28;10509514;28;2988;-67
2022/12/03 05:55:46;;;;;;;;;;;;;;;-0.93;100.00;95710.09;10510342;28;2554;-71
2022/12/03 06:00:49;;;;;;;;;;;;;;;-0.90;100.00;95712.31;10508783;28;2891;-70
2022/12/03 06:05:52;;;;;;;;;;;;;;;-0.81;100.00;95716.38;10505910;28;2437;-70
2022/12/03 06:10:55;;;;;;;;;;;;;;;-0.97;100.00;95716.78;10504987;28;2662;-76
2022/12/03 06:15:58;;;;;;;;;;;;;;;-0.97;100.00;95703.59;10501877;28;2847;-68
2022/12/03 06:21:02;;;;;;;;;;;;;;;-0.88;100.00;95707.66;10510786;28;2480;-70
2022/12/03 06:26:07;;;;;;;;;;;;;;;-0.84;100.00;95695.66;10506229;28;2914;-68
2022/12/03 06:31:10;;;;;;;;;;;;;;;-0.78;100.00;95699.31;10511263;28;2917;-67
2022/12/03 06:36:13;;;;;;;;;;;;;;;-0.81;100.00;95697.91;10501288;28;2894;-66
2022/12/03 06:41:23;;;;;;;;;;;;;;;-0.82;100.00;95693.66;10487790;28;2862;-64
2022/12/03 06:46:26;;;;;;;;;;;;;;;-0.75;100.00;95710.28;10497309;28;2912;-64
2022/12/03 06:51:30;;;;;;;;;;;;;;;-0.82;100.00;95691.03;10517243;28;2942;-68
2022/12/03 06:56:34;;;;;;;;;;;;;;;-0.81;100.00;95687.34;10520908;28;2909;-66
2022/12/03 07:01:45;;;;;;;;;;;;;;;-0.71;100.00;95689.56;10514855;28;2885;-67
2022/12/03 07:06:48;;;;;;;;;;;;;;;-0.68;100.00;95695.25;10504522;28;2891;-66
2022/12/03 07:11:51;;;;;;;;;;;;;;;-0.67;100.00;95691.59;10510978;28;2899;-66
2022/12/03 07:16:54;;;;;;;;;;;;;;;-0.66;100.00;95685.28;10509442;28;2873;-66
2022/12/03 07:21:57;;;;;;;;;;;;;;;-0.74;100.00;95685.53;10521013;28;3307;-66
2022/12/03 07:27:01;;;;;;;;;;;;;;;-0.86;100.00;95700.34;10510208;28;2918;-65
2022/12/03 07:32:04;;;;;;;;;;;;;;;-0.76;100.00;95687.56;10519925;28;2860;-66
2022/12/03 07:37:07;;;;;;;;;;;;;;;-0.72;100.00;95696.69;10510295;28;3160;-66
2022/12/03 07:42:10;;;;;;;;;;;;;;;-0.62;100.00;95686.53;10491073;28;3159;-66
2022/12/03 07:47:13;;;;;;;;;;;;;;;-0.47;100.00;95690.75;10511956;28;3319;-66
2022/12/03 07:52:16;;;;;;;;;;;;;;;-0.69;100.00;95698.91;10514996;28;3208;-67
2022/12/03 07:57:20;;;;;;;;;;;;;;;-0.42;100.00;95697.03;10507967;28;3174;-67
2022/12/03 08:02:23;;;;;;;;;;;;;;;-0.52;100.00;95703.75;10515056;28;2702;-68
2022/12/03 08:07:27;;;;;;;;;;;;;;;-0.32;100.00;95693.94;10519232;28;3148;-68
2022/12/03 08:12:39;;;;;;;;;;;;;;;-0.50;100.00;95683.25;10511961;28;3256;-73
2022/12/03 08:17:42;;;;;;;;;;;;;;;-0.63;100.00;95692.00;10511705;28;3250;-74
2022/12/03 08:22:46;;;;;;;;;;;;;;;-0.47;100.00;95680.19;10516751;28;3221;-72
2022/12/03 08:27:49;;;;;;;;;;;;;;;-0.44;100.00;95674.50;10511493;28;3187;-66
2022/12/03 08:32:52;;;;;;;;;;;;;;;-0.37;100.00;95684.03;10506302;28;3304;-66
2022/12/03 08:37:55;;;;;;;;;;;;;;;-0.44;100.00;95685.88;10509871;28;3198;-66
2022/12/03 08:43:01;;;;;;;;;;;;;;;-0.57;100.00;95684.09;10513073;28;2726;-70
2022/12/03 08:48:04;;;;;;;;;;;;;;;-0.56;100.00;95693.63;10511450;28;3191;-70
2022/12/03 08:53:08;;;;;;;;;;;;;;;-0.46;100.00;95690.53;10514896;28;3153;-66
2022/12/03 08:58:11;;;;;;;;;;;;;;;-0.56;100.00;95695.44;10508491;28;2735;-66
2022/12/03 09:03:14;;;;;;;;;;;;;;;-0.48;100.00;95694.41;10513303;28;3157;-66
2022/12/03 09:08:18;;;;;;;;;;;;;;;-0.36;100.00;95684.84;10511629;28;3141;-66
2022/12/03 09:13:21;;;;;;;;;;;;;;;-0.58;100.00;95687.72;10507161;28;3250;-66
2022/12/03 09:18:24;;;;;;;;;;;;;;;-0.55;100.00;95678.59;10510180;28;3263;-69
2022/12/03 09:23:27;;;;;;;;;;;;;;;-0.25;100.00;95689.50;10515562;28;3167;-66
2022/12/03 09:28:30;;;;;;;;;;;;;;;-0.26;100.00;95687.84;10518384;28;3179;-66
2022/12/03 09:33:34;;;;;;;;;;;;;;;-0.22;100.00;95682.97;10509410;28;3608;-67
2022/12/03 09:38:37;;;;;;;;;;;;;;;-0.30;100.00;95687.47;10510987;28;3128;-66
2022/12/03 09:43:46;;;;;;;;;;;;;;;-0.24;100.00;95667.34;10508139;28;3182;-68
2022/12/03 09:49:08;;;;;;;;;;;;;;;-0.09;100.00;95670.50;10515885;28;3245;-68
2022/12/03 09:54:17;;;;;;;;;;;;;;;0.20;100.00;95660.44;10507053;28;3128;-75
2022/12/03 09:59:21;;;;;;;;;;;;;;;-0.11;100.00;95654.06;10510853;28;3057;-75
2022/12/03 10:04:24;;;;;;;;;;;;;;;-0.20;100.00;95644.75;10514292;28;3186;-69
2022/12/03 10:09:27;;;;;;;;;;;;;;;-0.20;100.00;95639.47;10504479;28;3160;-67
2022/12/03 10:14:30;;;;;;;;;;;;;;;-0.06;100.00;95632.31;10502523;28;3048;-67
2022/12/03 10:19:34;;;;;;;;;;;;;;;0.15;100.00;95633.81;10506383;28;3174;-65
2022/12/03 10:24:37;;;;;;;;;;;;;;;0.12;100.00;95644.81;10526100;28;3163;-65
2022/12/03 10:29:41;;;;;;;;;;;;;;;-0.06;100.00;95625.19;10500935;28;3217;-65
2022/12/03 10:34:45;;;;;;;;;;;;;;;0.13;100.00;95607.63;10520645;28;3138;-66
2022/12/03 10:39:48;;;;;;;;;;;;;;;-0.13;100.00;95608.53;10525774;28;3236;-66
2022/12/03 10:44:57;;;;;;;;;;;;;;;-0.08;100.00;95610.56;10507685;28;3239;-67
2022/12/03 10:50:01;;;;;;;;;;;;;;;-0.04;100.00;95603.84;10516598;28;3159;-68
2022/12/03 10:55:04;;;;;;;;;;;;;;;-0.03;100.00;95598.34;10526547;28;3183;-68
2022/12/03 11:00:07;;;;;;;;;;;;;;;0.31;100.00;95595.50;10514381;28;3132;-66
2022/12/03 11:05:10;;;;;;;;;;;;;;;0.44;100.00;95582.97;10527610;28;3328;-67
2022/12/03 11:10:15;;;;;;;;;;;;;;;0.43;100.00;95580.56;10521888;28;3163;-75
2022/12/03 11:15:18;;;;;;;;;;;;;;;0.47;100.00;95574.63;10517635;28;3311;-65
2022/12/03 11:20:21;;;;;;;;;;;;;;;0.32;100.00;95579.44;10510094;28;3128;-66
2022/12/03 11:25:25;;;;;;;;;;;;;;;0.31;100.00;95583.06;10527146;28;3156;-65
2022/12/03 11:30:28;;;;;;;;;;;;;;;-0.03;100.00;95587.75;10511735;28;3184;-69
2022/12/03 11:35:32;;;;;;;;;;;;;;;-0.23;100.00;95597.63;10512871;28;3101;-67
2022/12/03 11:40:35;;;;;;;;;;;;;;;-0.39;100.00;95587.53;10521891;28;3121;-70
2022/12/03 11:45:41;;;;;;;;;;;;;;;-0.59;100.00;95588.41;10520297;28;3164;-66
2022/12/03 11:50:45;;;;;;;;;;;;;;;-0.43;100.00;95596.91;10498245;28;2666;-64
2022/12/03 11:55:51;;;;;;;;;;;;;;;-0.30;100.00;95581.00;10525267;28;3195;-63
2022/12/03 12:00:54;;;;;;;;;;;;;;;0.02;100.00;95595.06;10510216;28;3180;-68
2022/12/03 12:05:58;;;;;;;;;;;;;;;0.25;100.00;95586.56;10515552;28;3284;-64
2022/12/03 12:11:01;;;;;;;;;;;;;;;0.38;100.00;95572.44;10514265;28;3219;-67
2022/12/03 12:16:04;;;;;;;;;;;;;;;0.34;100.00;95561.50;10515096;28;2737;-73
2022/12/03 12:21:08;;;;;;;;;;;;;;;-0.08;100.00;95566.44;10517136;28;3140;-70
2022/12/03 12:26:11;;;;;;;;;;;;;;;-0.17;100.00;95548.44;10519808;28;3160;-67
2022/12/03 12:31:15;;;;;;;;;;;;;;;-0.15;100.00;95549.00;10515054;28;3244;-65
2022/12/03 12:36:18;;;;;;;;;;;;;;;0.11;100.00;95551.50;10524774;28;3241;-66
2022/12/03 12:41:21;;;;;;;;;;;;;;;0.26;100.00;95544.09;10513587;28;3286;-66
2022/12/03 12:46:25;;;;;;;;;;;;;;;0.20;100.00;95531.72;10510987;28;3263;-65
2022/12/03 12:51:49;;;;;;;;;;;;;;;0.17;100.00;95531.31;10520881;28;3132;-65
2022/12/03 12:56:52;;;;;;;;;;;;;;;0.15;100.00;95528.09;10514789;28;3163;-65
2022/12/03 13:01:55;;;;;;;;;;;;;;;0.27;100.00;95510.53;10503821;28;3416;-66
2022/12/03 13:06:59;;;;;;;;;;;;;;;0.47;100.00;95513.81;10511291;28;3108;-65
2022/12/03 13:12:03;;;;;;;;;;;;;;;0.54;100.00;95509.25;10502874;28;3177;-65
2022/12/03 13:17:06;;;;;;;;;;;;;;;0.25;100.00;95512.56;10510873;28;3172;-66
2022/12/03 13:22:09;;;;;;;;;;;;;;;0.11;100.00;95503.09;10501932;28;3568;-66
2022/12/03 13:27:12;;;;;;;;;;;;;;;-0.08;100.00;95492.47;10522919;28;3219;-66
2022/12/03 13:32:15;;;;;;;;;;;;;;;0.06;100.00;95506.38;10504635;28;3345;-65
2022/12/03 13:37:19;;;;;;;;;;;;;;;-0.20;100.00;95496.00;10500131;28;3154;-67
2022/12/03 13:42:41;;;;;;;;;;;;;;;-0.23;100.00;95485.88;10506726;28;3251;-67
2022/12/03 13:47:44;;;;;;;;;;;;;;;-0.02;100.00;95496.88;10501352;28;3107;-65
2022/12/03 13:52:48;;;;;;;;;;;;;;;-0.01;100.00;95493.22;10539316;27;3189;-65
2022/12/03 13:57:54;;;;;;;;;;;;;;;-0.22;100.00;95495.41;10507570;28;3147;-66
2022/12/03 14:02:57;;;;;;;;;;;;;;;-0.28;100.00;95494.44;10505262;28;3171;-66
2022/12/03 14:08:01;;;;;;;;;;;;;;;-0.29;100.00;95488.34;10504289;28;2721;-67
2022/12/03 14:13:04;;;;;;;;;;;;;;;-0.40;100.00;95490.84;10507054;28;3255;-70
2022/12/03 14:18:08;;;;;;;;;;;;;;;-0.46;100.00;95483.75;10504595;28;3280;-78
2022/12/03 14:23:11;;;;;;;;;;;;;;;-0.51;100.00;95489.66;10513619;28;2762;-66
2022/12/03 14:28:14;;;;;;;;;;;;;;;-0.57;100.00;95496.63;10501945;28;3218;-66
2022/12/03 14:33:17;;;;;;;;;;;;;;;-0.65;100.00;95486.28;10503673;28;2741;-71
2022/12/03 14:38:20;;;;;;;;;;;;;;;-0.54;100.00;95495.38;10488190;28;3230;-66
2022/12/03 14:43:24;;;;;;;;;;;;;;;-0.58;100.00;95484.41;10505487;28;2738;-65
2022/12/03 14:48:27;;;;;;;;;;;;;;;-0.64;100.00;95497.66;10488604;28;2742;-67
2022/12/03 14:53:30;;;;;;;;;;;;;;;-0.59;100.00;95496.00;10497064;28;3143;-66
2022/12/03 14:58:33;;;;;;;;;;;;;;;-0.74;100.00;95490.19;10518507;28;3191;-65
2022/12/03 15:03:37;;;;;;;;;;;;;;;-0.73;100.00;95486.53;10498176;28;3280;-66
2022/12/03 15:08:40;;;;;;;;;;;;;;;-0.62;100.00;95477.97;10500338;28;3191;-66
2022/12/03 15:13:43;;;;;;;;;;;;;;;-0.56;100.00;95482.41;10515013;28;3196;-66
2022/12/03 15:18:46;;;;;;;;;;;;;;;-0.56;100.00;95471.03;10511006;28;3228;-65
2022/12/03 15:23:50;;;;;;;;;;;;;;;-0.58;100.00;95475.69;10490601;28;2786;-66
2022/12/03 15:28:53;;;;;;;;;;;;;;;-0.42;100.00;95490.25;10510757;28;3271;-66
2022/12/03 15:33:57;;;;;;;;;;;;;;;-0.40;100.00;95485.56;10512658;28;3242;-66
2022/12/03 15:39:00;;;;;;;;;;;;;;;-0.29;100.00;95483.06;10507299;28;3135;-66
2022/12/03 15:44:04;;;;;;;;;;;;;;;-0.37;100.00;95474.59;10502679;28;2869;-65
2022/12/03 15:49:07;;;;;;;;;;;;;;;-0.45;100.00;95461.59;10499518;28;2694;-66
2022/12/03 15:54:11;;;;;;;;;;;;;;;-0.56;100.00;95471.03;10517721;28;3183;-64
2022/12/03 15:59:14;;;;;;;;;;;;;;;-0.67;100.00;95469.06;10491614;28;3251;-68
2022/12/03 16:04:18;;;;;;;;;;;;;;;-0.59;100.00;95460.88;10508619;28;3089;-69
2022/12/03 16:09:21;;;;;;;;;;;;;;;-0.64;100.00;95477.34;10508785;28;3124;-73
2022/12/03 16:14:29;;;;;;;;;;;;;;;-0.73;100.00;95475.16;10507723;28;3472;-71
2022/12/03 16:19:33;;;;;;;;;;;;;;;-0.87;100.00;95474.44;10503823;28;3179;-68
2022/12/03 16:24:36;;;;;;;;;;;;;;;-0.74;100.00;95469.09;10493731;28;3226;-70
2022/12/03 16:29:49;;;;;;;;;;;;;;;-0.76;100.00;95476.41;10506925;28;3217;-70
2022/12/03 16:34:53;;;;;;;;;;;;;;;-0.77;100.00;95474.78;10508716;28;3175;-73
2022/12/03 16:39:56;;;;;;;;;;;;;;;-0.84;100.00;95474.00;10506466;28;3195;-66
2022/12/03 16:45:32;;;;;;;;;;;;;;;-0.87;100.00;95477.06;10507106;28;3112;-66
2022/12/03 16:50:36;;;;;;;;;;;;;;;-0.79;100.00;95476.00;10508477;28;3624;-65
2022/12/03 16:55:39;;;;;;;;;;;;;;;-0.95;100.00;95469.38;10506849;28;3132;-68
2022/12/03 17:00:42;;;;;;;;;;;;;;;-0.92;100.00;95469.75;10485579;28;2754;-66
2022/12/03 17:05:46;;;;;;;;;;;;;;;-1.00;100.00;95470.00;10537406;27;3183;-66
2022/12/03 17:10:49;;;;;;;;;;;;;;;-0.95;100.00;95472.03;10501532;28;2699;-69
2022/12/03 17:15:52;;;;;;;;;;;0.10;99.90;;;-1.00;100.00;95464.72;10505108;28;3122;-71
2022/12/03 17:20:55;;;;;;;;;;;0.10;99.90;;;-0.88;100.00;95454.34;10505484;28;3111;-73
2022/12/03 17:26:07;;;;;;;;;;;0.20;99.90;;;-0.99;100.00;95453.16;10511517;28;3303;-77
2022/12/03 17:31:10;;;;;;;;;;;0.20;99.90;;;-0.96;100.00;95454.56;10523025;28;3213;-66
2022/12/03 17:36:13;;;;;;;;;;;0.20;99.90;;;-1.14;100.00;95437.59;10523640;28;3464;-67
2022/12/03 17:41:16;;;;;;;;;;;0.10;99.90;;;-1.11;100.00;95444.28;10510323;28;3198;-66
2022/12/03 17:46:19;;;;;;;;;;;0.00;99.90;;;-1.09;100.00;95455.41;10498415;28;3265;-66
2022/12/03 17:51:23;;;;;;;;;;;0.00;99.90;;;-1.01;100.00;95444.66;10503130;28;3195;-66
2022/12/03 17:56:26;;;;;;;;;;;0.10;99.90;;;-1.04;100.00;95441.59;10502224;28;3186;-71
2022/12/03 18:01:29;;;;;;;;;;;0.20;99.90;;;-0.98;100.00;95436.31;10504307;28;2912;-65
2022/12/03 18:06:32;;;;;;;;;;;0.20;99.90;;;-1.18;100.00;95452.22;10505709;28;3666;-66
2022/12/03 18:11:39;;;;;;;;;;;0.10;99.90;;;-1.22;100.00;95447.53;10507919;28;2729;-67
2022/12/03 18:16:43;;;;;;;;;;;0.00;99.90;;;-1.25;100.00;95435.59;10509835;28;3154;-70
2022/12/03 18:21:45;;;;;;;;;;;0.00;99.90;;;-1.18;100.00;95431.09;10519712;28;3137;-73
2022/12/03 18:26:48;;;;;;;;;;;0.00;99.90;;;-1.26;100.00;95436.63;10504535;28;3155;-71
2022/12/03 18:31:51;;;;;;;;;;;0.00;99.90;;;-1.21;100.00;95444.72;10505269;28;3167;-71
2022/12/03 18:36:53;;;;;;;;;;;-0.10;99.90;;;-1.12;100.00;95435.56;10510500;28;3219;-71
2022/12/03 18:41:56;;;;;;;;;;;0.00;99.90;;;-1.19;100.00;95432.13;10510039;28;3168;-68
2022/12/03 18:47:01;;;;;;;;;;;0.00;99.90;;;-1.17;100.00;95421.38;10504993;28;2734;-74
2022/12/03 18:52:04;;;;;;;;;;;0.00;99.90;;;-0.96;100.00;95422.91;10528139;28;3301;-68
2022/12/03 18:57:07;;;;;;;;;;;0.20;99.90;;;-1.15;100.00;95425.41;10519749;28;3229;-67
2022/12/03 19:02:10;;;;;;;;;;;0.20;99.90;;;-1.16;100.00;95434.34;10515644;28;3246;-67
2022/12/03 19:07:14;;;;;;;;;;;0.00;99.90;;;-1.24;100.00;95442.50;10496835;28;2769;-66
2022/12/03 19:12:17;;;;;;;;;;;0.00;99.90;;;-0.99;100.00;95433.88;10514485;28;3164;-66
2022/12/03 19:17:20;;;;;;;;;;;0.10;99.90;;;-1.10;100.00;95433.50;10508086;28;3135;-68
2022/12/03 19:22:23;;;;;;;;;;;0.10;99.90;;;-0.97;100.00;95430.00;10509173;28;3518;-66
2022/12/03 19:27:25;;;;;;;;;;;0.20;99.90;;;-1.02;100.00;95429.81;10525157;28;3263;-66
2022/12/03 19:32:28;;;;;;;;;;;0.20;99.90;;;-1.07;100.00;95416.47;10510177;28;3191;-66
2022/12/03 19:37:30;;;;;;;;;;;0.10;99.90;;;-1.17;100.00;95421.38;10503403;28;3097;-66
2022/12/03 19:42:33;;;;;;;;;;;0.00;99.90;;;-1.18;100.00;95423.19;10513463;28;3553;-67
2022/12/03 19:47:36;;;;;;;;;;;0.00;99.90;;;-1.16;100.00;95415.88;10505895;28;3267;-67
2022/12/03 19:52:38;;;;;;;;;;;0.00;99.90;;;-1.05;100.00;95422.34;10512577;28;3123;-65
2022/12/03 19:57:41;;;;;;;;;;;0.10;99.90;;;-1.01;100.00;95415.63;10493736;28;3168;-66
2022/12/03 20:02:44;;;;;;;;;;;0.10;99.90;;;-0.96;100.00;95422.91;10522695;28;3243;-66
2022/12/03 20:07:47;;;;;;;;;;;0.20;99.90;;;-1.01;100.00;95418.28;10511100;28;3132;-66
2022/12/03 20:12:50;;;;;;;;;;;0.20;99.90;;;-0.97;100.00;95419.44;10516258;28;3137;-66
2022/12/03 20:17:53;;;;;;;;;;;0.20;99.90;;;-0.96;100.00;95407.06;10508760;28;3263;-68
2022/12/03 20:22:55;;;;;;;;;;;0.20;99.90;;;-0.97;100.00;95406.25;10511396;28;3132;-66
2022/12/03 20:27:58;;;;;;;;;;;0.20;99.90;;;-1.00;100.00;95400.59;10517977;28;3207;-68
2022/12/03 20:33:01;;;;;;;;;;;0.20;99.90;;;-0.84;100.00;95387.72;10508086;28;2772;-67
2022/12/03 20:38:03;;;;;;;;;;;0.20;99.90;;;-0.79;100.00;95381.81;10500342;28;3249;-65
2022/12/03 20:43:06;;;;;;;;;;;0.30;99.90;;;-0.77;100.00;95379.75;10510349;28;3196;-66
2022/12/03 20:48:10;;;;;;;;;;;0.30;99.90;;;-0.80;100.00;95380.19;10513073;28;3244;-66
2022/12/03 20:53:13;;;;;;;;;;;0.40;99.90;;;-0.76;100.00;95370.84;10507535;28;3251;-75
2022/12/03 20:58:26;;;;;;;;;;;0.40;99.90;;;-0.80;100.00;95374.09;10505452;28;3377;-74
2022/12/03 21:03:29;;;;;;;;;;;0.30;99.90;;;-0.84;100.00;95381.63;10508899;28;2718;-67
2022/12/03 21:08:32;;;;;;;;;;;0.40;99.90;;;-0.78;100.00;95378.16;10506609;28;3175;-66
2022/12/03 21:13:43;;;;;;;;;;;0.30;99.90;;;-0.85;100.00;95356.25;10506573;28;3453;-66
2022/12/03 21:18:45;;;;;;;;;;;0.30;99.90;;;-0.89;100.00;95349.78;10506860;28;3208;-68
2022/12/03 21:23:48;;;;;;;;;;;0.30;99.90;;;-0.90;100.00;95356.09;10505071;28;3187;-66
2022/12/03 21:28:51;;;;;;;;;;;0.20;99.90;;;-0.95;100.00;95351.47;10510852;28;3151;-66
2022/12/03 21:33:54;;;;;;;;;;;0.20;99.90;;;-0.87;100.00;95350.41;10501146;28;3189;-64
2022/12/03 21:38:56;;;;;;;;;;;0.20;99.90;;;-0.82;100.00;95338.19;10505103;28;2683;-65
2022/12/03 21:43:59;;;;;;;;;;;0.30;99.90;;;-0.81;100.00;95336.34;10510221;28;3147;-68
2022/12/03 21:49:02;;;;;;;;;;;0.30;99.90;;;-0.69;100.00;95345.22;10508197;28;3179;-66
2022/12/03 21:54:05;;;;;;;;;;;0.40;99.90;;;-0.78;100.00;95338.56;10503512;28;3259;-66
2022/12/03 21:59:07;;;;;;;;;;;0.40;99.90;;;-0.72;100.00;95345.63;10505642;28;3188;-65
2022/12/03 22:04:10;;;;;;;;;;;0.40;99.90;;;-0.74;100.00;95352.97;10500840;28;3166;-69
2022/12/03 22:09:12;;;;;;;;;;;0.40;99.90;;;-0.65;100.00;95346.38;10504974;28;3253;-68
2022/12/03 22:14:15;;;;;;;;;;;0.40;99.90;;;-0.75;100.00;95346.06;10502940;28;3130;-66
2022/12/03 22:19:18;;;;;;;;;;;0.40;99.90;;;-0.77;100.00;95348.09;10518079;28;3150;-65
2022/12/03 22:24:22;;;;;;;;;;;0.40;99.90;;;-0.67;100.00;95356.34;10512497;28;3153;-64
2022/12/03 22:29:35;;;;;;;;;;;0.40;99.90;;;-0.62;100.00;95348.59;10523335;28;3209;-68
2022/12/03 22:34:39;;;;;;;;;;;0.50;99.90;;;-0.56;100.00;95350.41;10525153;28;3540;-65
2022/12/03 22:39:42;;;;;;;;;;;0.50;99.90;;;-0.62;100.00;95335.41;10520607;28;2733;-68
2022/12/03 22:44:45;;;;;;;;;;;0.50;99.90;;;-0.65;100.00;95335.81;10517439;28;3083;-66
2022/12/03 22:49:47;;;;;;;;;;;-0.60;99.90;;;-0.59;100.00;95313.84;10514983;28;3314;-67
2022/12/03 22:54:50;;;;;;;;;;;0.50;99.90;;;-0.65;100.00;95330.53;10516918;28;3139;-64
2022/12/03 22:59:53;;;;;;;;;;;0.50;99.90;;;-0.84;100.00;95316.47;10523935;28;3174;-66
2022/12/03 23:04:56;;;;;;;;;;;0.50;99.90;;;-0.84;100.00;95319.09;10516837;28;3418;-67
2022/12/03 23:09:59;;;;;;;;;;;0.40;99.90;;;-0.79;100.00;95317.66;10521555;28;3222;-66
2022/12/03 23:15:01;;;;;;;;;;;0.30;99.90;;;-0.76;100.00;95302.22;10520589;28;2694;-66
2022/12/03 23:20:05;;;;;;;;;;;0.40;99.90;;;-0.80;100.00;95295.75;10514150;28;3214;-65
2022/12/03 23:25:08;;;;;;;;;;;0.40;99.90;;;-0.82;100.00;95292.53;10522524;28;3187;-68
2022/12/03 23:30:12;;;;;;;;;;;0.30;99.90;;;-0.74;100.00;95286.97;10508211;28;2746;-65
2022/12/03 23:35:16;;;;;;;;;;;0.40;99.90;;;-0.83;100.00;95290.88;10509389;28;3205;-65
2022/12/03 23:40:18;;;;;;;;;;;0.40;99.90;;;-0.79;100.00;95283.34;10512020;28;3235;-64
2022/12/03 23:45:21;;;;;;;;;;;0.40;99.90;;;-0.92;100.00;95279.78;10514082;28;3191;-66
2022/12/03 23:50:24;;;;;;;;;;;0.30;99.90;;;-0.69;100.00;95276.59;10505860;28;3314;-66
2022/12/03 23:55:26;;;;;;;;;;;0.40;99.90;;;-0.76;100.00;95270.56;10511061;28;3136;-66
